sensor_id;sensor_type;location;lat;lon;timestamp;temperature;humidity
16271;DHT22;8243;49.048;8.396;2023-04-12T00:01:26;10.50;48.90
16271;DHT22;8243;49.048;8.396;2023-04-12T00:03:51;10.40;50.00
16271;DHT22;8243;49.048;8.396;2023-04-12T00:06:18;10.40;53.50
16271;DHT22;8243;49.048;8.396;2023-04-12T00:08:50;10.30;56.30
16271;DHT22;8243;49.048;8.396;2023-04-12T00:11:15;10.30;57.60
16271;DHT22;8243;49.048;8.396;2023-04-12T00:13:41;10.20;62.90
16271;DHT22;8243;49.048;8.396;2023-04-12T00:16:08;10.10;65.70
16271;DHT22;8243;49.048;8.396;2023-04-12T00:18:33;10.00;71.40
16271;DHT22;8243;49.048;8.396;2023-04-12T00:20:59;9.90;81.10
16271;DHT22;8243;49.048;8.396;2023-04-12T00:23:24;9.80;90.80
16271;DHT22;8243;49.048;8.396;2023-04-12T00:25:50;9.70;97.00
16271;DHT22;8243;49.048;8.396;2023-04-12T00:28:16;9.60;99.90
16271;DHT22;8243;49.048;8.396;2023-04-12T00:30:41;9.50;99.90
16271;DHT22;8243;49.048;8.396;2023-04-12T00:33:07;9.40;99.90
16271;DHT22;8243;49.048;8.396;2023-04-12T00:35:33;9.30;99.90
16271;DHT22;8243;49.048;8.396;2023-04-12T00:37:58;9.30;99.90
16271;DHT22;8243;49.048;8.396;2023-04-12T00:40:24;9.20;99.90
16271;DHT22;8243;49.048;8.396;2023-04-12T00:42:49;9.20;99.90
16271;DHT22;8243;49.048;8.396;2023-04-12T00:45:15;9.20;99.90
16271;DHT22;8243;49.048;8.396;2023-04-12T00:47:41;9.20;99.90
16271;DHT22;8243;49.048;8.396;2023-04-12T00:50:10;9.20;99.90
16271;DHT22;8243;49.048;8.396;2023-04-12T00:52:36;9.20;99.90
16271;DHT22;8243;49.048;8.396;2023-04-12T00:55:06;9.10;99.90
16271;DHT22;8243;49.048;8.396;2023-04-12T00:57:38;9.10;99.90
16271;DHT22;8243;49.048;8.396;2023-04-12T01:00:08;9.10;99.90
16271;DHT22;8243;49.048;8.396;2023-04-12T01:02:36;9.00;99.90
16271;DHT22;8243;49.048;8.396;2023-04-12T01:05:04;9.00;99.90
16271;DHT22;8243;49.048;8.396;2023-04-12T01:10:07;9.00;99.90
16271;DHT22;8243;49.048;8.396;2023-04-12T01:12:43;8.90;99.90
16271;DHT22;8243;49.048;8.396;2023-04-12T01:15:13;8.90;99.90
16271;DHT22;8243;49.048;8.396;2023-04-12T01:18:04;8.90;99.90
16271;DHT22;8243;49.048;8.396;2023-04-12T01:20:50;8.90;99.90
16271;DHT22;8243;49.048;8.396;2023-04-12T01:23:44;8.90;99.90
16271;DHT22;8243;49.048;8.396;2023-04-12T01:29:01;8.80;99.90
16271;DHT22;8243;49.048;8.396;2023-04-12T01:31:30;8.90;99.90
16271;DHT22;8243;49.048;8.396;2023-04-12T01:33:57;8.90;99.90
16271;DHT22;8243;49.048;8.396;2023-04-12T01:36:25;8.80;99.90
16271;DHT22;8243;49.048;8.396;2023-04-12T01:38:53;8.90;99.90
16271;DHT22;8243;49.048;8.396;2023-04-12T01:41:19;8.90;99.90
16271;DHT22;8243;49.048;8.396;2023-04-12T01:43:46;8.90;99.90
16271;DHT22;8243;49.048;8.396;2023-04-12T01:46:17;8.80;99.90
16271;DHT22;8243;49.048;8.396;2023-04-12T01:48:48;8.80;99.90
16271;DHT22;8243;49.048;8.396;2023-04-12T01:53:56;8.80;99.90
16271;DHT22;8243;49.048;8.396;2023-04-12T01:56:23;8.80;99.90
16271;DHT22;8243;49.048;8.396;2023-04-12T01:58:52;8.70;99.90
16271;DHT22;8243;49.048;8.396;2023-04-12T02:01:18;8.80;99.90
16271;DHT22;8243;49.048;8.396;2023-04-12T02:03:44;8.80;99.90
16271;DHT22;8243;49.048;8.396;2023-04-12T02:06:14;8.70;99.90
16271;DHT22;8243;49.048;8.396;2023-04-12T02:08:40;8.80;99.90
16271;DHT22;8243;49.048;8.396;2023-04-12T02:11:11;8.70;99.90
16271;DHT22;8243;49.048;8.396;2023-04-12T02:13:38;8.60;99.90
16271;DHT22;8243;49.048;8.396;2023-04-12T02:16:04;8.60;99.90
16271;DHT22;8243;49.048;8.396;2023-04-12T02:18:32;8.70;99.90
16271;DHT22;8243;49.048;8.396;2023-04-12T02:20:59;8.60;99.90
16271;DHT22;8243;49.048;8.396;2023-04-12T02:23:25;8.60;99.90
16271;DHT22;8243;49.048;8.396;2023-04-12T02:25:51;8.60;99.90
16271;DHT22;8243;49.048;8.396;2023-04-12T02:28:17;8.60;99.90
16271;DHT22;8243;49.048;8.396;2023-04-12T02:30:42;8.70;99.90
16271;DHT22;8243;49.048;8.396;2023-04-12T02:33:08;8.70;99.90
16271;DHT22;8243;49.048;8.396;2023-04-12T02:35:34;8.60;99.90
16271;DHT22;8243;49.048;8.396;2023-04-12T02:38:03;8.70;99.90
16271;DHT22;8243;49.048;8.396;2023-04-12T02:40:38;8.70;99.90
16271;DHT22;8243;49.048;8.396;2023-04-12T02:43:07;8.70;99.90
16271;DHT22;8243;49.048;8.396;2023-04-12T02:45:33;8.70;99.90
16271;DHT22;8243;49.048;8.396;2023-04-12T02:47:58;8.70;99.90
16271;DHT22;8243;49.048;8.396;2023-04-12T02:50:24;8.70;99.90
16271;DHT22;8243;49.048;8.396;2023-04-12T02:52:49;8.70;99.90
16271;DHT22;8243;49.048;8.396;2023-04-12T02:55:15;8.60;99.90
16271;DHT22;8243;49.048;8.396;2023-04-12T02:57:43;8.60;99.90
16271;DHT22;8243;49.048;8.396;2023-04-12T03:00:10;8.50;99.90
16271;DHT22;8243;49.048;8.396;2023-04-12T03:02:36;8.50;99.90
16271;DHT22;8243;49.048;8.396;2023-04-12T03:05:02;8.50;99.90
16271;DHT22;8243;49.048;8.396;2023-04-12T03:07:29;8.50;99.90
16271;DHT22;8243;49.048;8.396;2023-04-12T03:09:55;8.40;99.90
16271;DHT22;8243;49.048;8.396;2023-04-12T03:12:21;8.40;99.90
16271;DHT22;8243;49.048;8.396;2023-04-12T03:14:46;8.40;99.90
16271;DHT22;8243;49.048;8.396;2023-04-12T03:17:12;8.40;99.90
16271;DHT22;8243;49.048;8.396;2023-04-12T03:19:38;8.30;99.90
16271;DHT22;8243;49.048;8.396;2023-04-12T03:22:04;8.40;99.90
16271;DHT22;8243;49.048;8.396;2023-04-12T03:24:30;8.40;99.90
16271;DHT22;8243;49.048;8.396;2023-04-12T03:27:02;8.40;99.90
16271;DHT22;8243;49.048;8.396;2023-04-12T03:29:29;8.40;99.90
16271;DHT22;8243;49.048;8.396;2023-04-12T03:31:56;8.40;99.90
16271;DHT22;8243;49.048;8.396;2023-04-12T03:34:23;8.40;99.90
16271;DHT22;8243;49.048;8.396;2023-04-12T03:36:49;8.40;99.90
16271;DHT22;8243;49.048;8.396;2023-04-12T03:39:15;8.40;99.90
16271;DHT22;8243;49.048;8.396;2023-04-12T03:41:41;8.40;99.90
16271;DHT22;8243;49.048;8.396;2023-04-12T03:44:07;8.40;99.90
16271;DHT22;8243;49.048;8.396;2023-04-12T03:46:33;8.30;99.90
16271;DHT22;8243;49.048;8.396;2023-04-12T03:48:59;8.30;99.90
16271;DHT22;8243;49.048;8.396;2023-04-12T03:51:24;8.20;99.90
16271;DHT22;8243;49.048;8.396;2023-04-12T03:53:52;8.20;99.90
16271;DHT22;8243;49.048;8.396;2023-04-12T03:56:19;8.30;99.90
16271;DHT22;8243;49.048;8.396;2023-04-12T03:58:45;8.20;99.90
16271;DHT22;8243;49.048;8.396;2023-04-12T04:01:11;8.20;99.90
16271;DHT22;8243;49.048;8.396;2023-04-12T04:03:38;8.20;99.90
16271;DHT22;8243;49.048;8.396;2023-04-12T04:06:05;8.20;99.90
16271;DHT22;8243;49.048;8.396;2023-04-12T04:08:31;8.20;99.90
16271;DHT22;8243;49.048;8.396;2023-04-12T04:10:58;8.20;99.90
16271;DHT22;8243;49.048;8.396;2023-04-12T04:13:24;8.20;99.90
16271;DHT22;8243;49.048;8.396;2023-04-12T04:15:55;8.20;99.90
16271;DHT22;8243;49.048;8.396;2023-04-12T04:18:22;8.20;99.90
16271;DHT22;8243;49.048;8.396;2023-04-12T04:20:48;8.20;99.90
16271;DHT22;8243;49.048;8.396;2023-04-12T04:23:13;8.20;99.90
16271;DHT22;8243;49.048;8.396;2023-04-12T04:25:39;8.20;99.90
16271;DHT22;8243;49.048;8.396;2023-04-12T04:28:06;8.20;99.90
16271;DHT22;8243;49.048;8.396;2023-04-12T04:30:32;8.20;99.90
16271;DHT22;8243;49.048;8.396;2023-04-12T04:33:03;8.20;99.90
16271;DHT22;8243;49.048;8.396;2023-04-12T04:35:29;8.20;99.90
16271;DHT22;8243;49.048;8.396;2023-04-12T04:37:56;8.20;99.90
16271;DHT22;8243;49.048;8.396;2023-04-12T04:40:21;8.20;99.90
16271;DHT22;8243;49.048;8.396;2023-04-12T04:42:49;8.20;99.90
16271;DHT22;8243;49.048;8.396;2023-04-12T04:45:23;8.20;99.90
16271;DHT22;8243;49.048;8.396;2023-04-12T04:47:55;8.20;99.90
16271;DHT22;8243;49.048;8.396;2023-04-12T04:50:21;8.20;99.90
16271;DHT22;8243;49.048;8.396;2023-04-12T04:52:50;8.20;99.90
16271;DHT22;8243;49.048;8.396;2023-04-12T04:55:16;8.20;99.90
16271;DHT22;8243;49.048;8.396;2023-04-12T04:57:43;8.20;99.90
16271;DHT22;8243;49.048;8.396;2023-04-12T05:00:09;8.20;99.90
16271;DHT22;8243;49.048;8.396;2023-04-12T05:02:41;8.30;99.90
16271;DHT22;8243;49.048;8.396;2023-04-12T05:05:11;8.30;99.90
16271;DHT22;8243;49.048;8.396;2023-04-12T05:07:47;8.30;99.90
16271;DHT22;8243;49.048;8.396;2023-04-12T05:10:13;8.30;99.90
16271;DHT22;8243;49.048;8.396;2023-04-12T05:12:38;8.30;99.90
16271;DHT22;8243;49.048;8.396;2023-04-12T05:15:04;8.30;99.90
16271;DHT22;8243;49.048;8.396;2023-04-12T05:17:30;8.40;99.90
16271;DHT22;8243;49.048;8.396;2023-04-12T05:19:56;8.40;99.90
16271;DHT22;8243;49.048;8.396;2023-04-12T05:22:22;8.40;99.90
16271;DHT22;8243;49.048;8.396;2023-04-12T05:24:48;8.40;99.90
16271;DHT22;8243;49.048;8.396;2023-04-12T05:27:14;8.40;99.90
16271;DHT22;8243;49.048;8.396;2023-04-12T05:29:43;8.50;99.90
16271;DHT22;8243;49.048;8.396;2023-04-12T05:32:09;8.40;99.90
16271;DHT22;8243;49.048;8.396;2023-04-12T05:34:35;8.40;99.90
16271;DHT22;8243;49.048;8.396;2023-04-12T05:37:02;8.40;99.90
16271;DHT22;8243;49.048;8.396;2023-04-12T05:39:28;8.50;99.90
16271;DHT22;8243;49.048;8.396;2023-04-12T05:41:53;8.50;99.90
16271;DHT22;8243;49.048;8.396;2023-04-12T05:44:19;8.50;99.90
16271;DHT22;8243;49.048;8.396;2023-04-12T05:46:45;8.60;99.90
16271;DHT22;8243;49.048;8.396;2023-04-12T05:49:10;8.60;99.90
16271;DHT22;8243;49.048;8.396;2023-04-12T05:51:36;8.60;99.90
16271;DHT22;8243;49.048;8.396;2023-04-12T05:54:02;8.60;99.90
16271;DHT22;8243;49.048;8.396;2023-04-12T05:56:30;8.70;99.90
16271;DHT22;8243;49.048;8.396;2023-04-12T05:58:56;8.70;99.90
16271;DHT22;8243;49.048;8.396;2023-04-12T06:01:22;8.60;99.90
16271;DHT22;8243;49.048;8.396;2023-04-12T06:03:49;8.60;99.90
16271;DHT22;8243;49.048;8.396;2023-04-12T06:06:15;8.60;99.90
16271;DHT22;8243;49.048;8.396;2023-04-12T06:08:41;8.70;99.90
16271;DHT22;8243;49.048;8.396;2023-04-12T06:11:07;8.70;99.90
16271;DHT22;8243;49.048;8.396;2023-04-12T06:13:33;8.70;99.90
16271;DHT22;8243;49.048;8.396;2023-04-12T06:15:59;8.70;99.90
16271;DHT22;8243;49.048;8.396;2023-04-12T06:18:24;8.80;99.90
16271;DHT22;8243;49.048;8.396;2023-04-12T06:20:50;8.70;99.90
16271;DHT22;8243;49.048;8.396;2023-04-12T06:23:16;8.80;99.90
16271;DHT22;8243;49.048;8.396;2023-04-12T06:25:43;8.90;99.90
16271;DHT22;8243;49.048;8.396;2023-04-12T06:28:09;8.90;99.90
16271;DHT22;8243;49.048;8.396;2023-04-12T06:30:34;8.90;99.90
16271;DHT22;8243;49.048;8.396;2023-04-12T06:33:00;9.00;99.90
16271;DHT22;8243;49.048;8.396;2023-04-12T06:35:26;9.10;99.90
16271;DHT22;8243;49.048;8.396;2023-04-12T06:37:51;9.10;99.90
16271;DHT22;8243;49.048;8.396;2023-04-12T06:40:17;9.20;99.90
16271;DHT22;8243;49.048;8.396;2023-04-12T06:42:43;9.20;99.90
16271;DHT22;8243;49.048;8.396;2023-04-12T06:45:09;9.20;99.90
16271;DHT22;8243;49.048;8.396;2023-04-12T06:47:35;9.30;99.90
16271;DHT22;8243;49.048;8.396;2023-04-12T06:50:00;9.30;99.90
16271;DHT22;8243;49.048;8.396;2023-04-12T06:52:27;9.30;99.90
16271;DHT22;8243;49.048;8.396;2023-04-12T06:54:54;9.40;99.90
16271;DHT22;8243;49.048;8.396;2023-04-12T06:57:20;9.50;99.90
16271;DHT22;8243;49.048;8.396;2023-04-12T06:59:46;9.50;99.90
16271;DHT22;8243;49.048;8.396;2023-04-12T07:02:12;9.50;99.90
16271;DHT22;8243;49.048;8.396;2023-04-12T07:04:38;9.60;99.90
16271;DHT22;8243;49.048;8.396;2023-04-12T07:07:11;9.70;99.90
16271;DHT22;8243;49.048;8.396;2023-04-12T07:09:36;9.70;99.90
16271;DHT22;8243;49.048;8.396;2023-04-12T07:12:02;9.70;99.90
16271;DHT22;8243;49.048;8.396;2023-04-12T07:14:28;9.70;99.90
16271;DHT22;8243;49.048;8.396;2023-04-12T07:16:53;9.80;99.90
16271;DHT22;8243;49.048;8.396;2023-04-12T07:19:19;9.80;99.90
16271;DHT22;8243;49.048;8.396;2023-04-12T07:21:44;9.80;99.90
16271;DHT22;8243;49.048;8.396;2023-04-12T07:24:10;9.90;99.90
16271;DHT22;8243;49.048;8.396;2023-04-12T07:26:35;9.90;99.90
16271;DHT22;8243;49.048;8.396;2023-04-12T07:29:01;9.90;99.90
16271;DHT22;8243;49.048;8.396;2023-04-12T07:31:26;10.00;99.90
16271;DHT22;8243;49.048;8.396;2023-04-12T07:33:55;10.10;99.90
16271;DHT22;8243;49.048;8.396;2023-04-12T07:36:20;10.00;99.90
16271;DHT22;8243;49.048;8.396;2023-04-12T07:38:46;10.00;99.90
16271;DHT22;8243;49.048;8.396;2023-04-12T07:41:13;10.10;99.90
16271;DHT22;8243;49.048;8.396;2023-04-12T07:43:38;10.10;99.90
16271;DHT22;8243;49.048;8.396;2023-04-12T07:46:04;10.20;99.90
16271;DHT22;8243;49.048;8.396;2023-04-12T07:48:32;10.30;99.90
16271;DHT22;8243;49.048;8.396;2023-04-12T07:50:58;10.40;99.90
16271;DHT22;8243;49.048;8.396;2023-04-12T07:53:26;10.50;99.90
16271;DHT22;8243;49.048;8.396;2023-04-12T07:55:52;10.60;99.90
16271;DHT22;8243;49.048;8.396;2023-04-12T07:58:19;10.60;99.90
16271;DHT22;8243;49.048;8.396;2023-04-12T08:00:45;10.70;99.90
16271;DHT22;8243;49.048;8.396;2023-04-12T08:03:12;10.80;99.90
16271;DHT22;8243;49.048;8.396;2023-04-12T08:05:38;10.90;99.90
16271;DHT22;8243;49.048;8.396;2023-04-12T08:08:04;11.00;99.90
16271;DHT22;8243;49.048;8.396;2023-04-12T08:10:30;11.10;99.90
16271;DHT22;8243;49.048;8.396;2023-04-12T08:12:57;11.10;99.90
16271;DHT22;8243;49.048;8.396;2023-04-12T08:15:22;11.20;99.90
16271;DHT22;8243;49.048;8.396;2023-04-12T08:17:48;11.20;99.90
16271;DHT22;8243;49.048;8.396;2023-04-12T08:20:14;11.40;99.90
16271;DHT22;8243;49.048;8.396;2023-04-12T08:22:43;11.50;99.90
16271;DHT22;8243;49.048;8.396;2023-04-12T08:25:09;11.60;99.90
16271;DHT22;8243;49.048;8.396;2023-04-12T08:27:35;11.80;99.90
16271;DHT22;8243;49.048;8.396;2023-04-12T08:30:01;11.90;99.90
16271;DHT22;8243;49.048;8.396;2023-04-12T08:32:28;12.10;99.90
16271;DHT22;8243;49.048;8.396;2023-04-12T08:34:53;12.30;99.90
16271;DHT22;8243;49.048;8.396;2023-04-12T08:37:19;12.60;99.90
16271;DHT22;8243;49.048;8.396;2023-04-12T08:39:45;12.60;99.90
16271;DHT22;8243;49.048;8.396;2023-04-12T08:42:13;12.70;99.90
16271;DHT22;8243;49.048;8.396;2023-04-12T08:44:39;12.70;99.90
16271;DHT22;8243;49.048;8.396;2023-04-12T08:47:09;12.80;99.90
16271;DHT22;8243;49.048;8.396;2023-04-12T08:49:36;12.70;99.90
16271;DHT22;8243;49.048;8.396;2023-04-12T08:52:06;12.60;99.90
16271;DHT22;8243;49.048;8.396;2023-04-12T08:54:32;12.40;99.90
16271;DHT22;8243;49.048;8.396;2023-04-12T08:57:00;12.30;99.90
16271;DHT22;8243;49.048;8.396;2023-04-12T08:59:27;12.20;99.90
16271;DHT22;8243;49.048;8.396;2023-04-12T09:01:53;12.20;99.90
16271;DHT22;8243;49.048;8.396;2023-04-12T09:04:20;12.30;99.90
16271;DHT22;8243;49.048;8.396;2023-04-12T09:06:48;12.40;99.90
16271;DHT22;8243;49.048;8.396;2023-04-12T09:09:14;12.40;99.90
16271;DHT22;8243;49.048;8.396;2023-04-12T09:11:39;12.30;99.90
16271;DHT22;8243;49.048;8.396;2023-04-12T09:14:23;12.30;99.90
16271;DHT22;8243;49.048;8.396;2023-04-12T09:16:49;12.30;99.90
16271;DHT22;8243;49.048;8.396;2023-04-12T09:19:15;12.40;99.90
16271;DHT22;8243;49.048;8.396;2023-04-12T09:21:53;12.40;99.90
16271;DHT22;8243;49.048;8.396;2023-04-12T09:24:18;12.40;99.90
16271;DHT22;8243;49.048;8.396;2023-04-12T09:27:01;12.40;99.90
16271;DHT22;8243;49.048;8.396;2023-04-12T09:29:28;12.60;99.90
16271;DHT22;8243;49.048;8.396;2023-04-12T09:32:03;12.80;99.90
16271;DHT22;8243;49.048;8.396;2023-04-12T09:34:30;12.80;99.90
16271;DHT22;8243;49.048;8.396;2023-04-12T09:36:56;12.70;99.90
16271;DHT22;8243;49.048;8.396;2023-04-12T09:39:32;12.60;99.90
16271;DHT22;8243;49.048;8.396;2023-04-12T09:42:10;12.60;99.90
16271;DHT22;8243;49.048;8.396;2023-04-12T09:44:36;12.50;99.90
16271;DHT22;8243;49.048;8.396;2023-04-12T09:47:02;12.40;99.90
16271;DHT22;8243;49.048;8.396;2023-04-12T09:49:55;12.50;99.90
16271;DHT22;8243;49.048;8.396;2023-04-12T09:52:21;12.70;99.90
16271;DHT22;8243;49.048;8.396;2023-04-12T09:54:47;12.80;99.90
16271;DHT22;8243;49.048;8.396;2023-04-12T09:57:20;12.80;99.90
16271;DHT22;8243;49.048;8.396;2023-04-12T09:59:48;12.90;99.90
16271;DHT22;8243;49.048;8.396;2023-04-12T10:02:18;13.00;99.90
16271;DHT22;8243;49.048;8.396;2023-04-12T10:04:47;13.20;99.90
16271;DHT22;8243;49.048;8.396;2023-04-12T10:07:13;13.30;99.90
16271;DHT22;8243;49.048;8.396;2023-04-12T10:09:40;13.30;99.90
16271;DHT22;8243;49.048;8.396;2023-04-12T10:12:07;13.40;99.90
16271;DHT22;8243;49.048;8.396;2023-04-12T10:14:33;13.70;99.90
16271;DHT22;8243;49.048;8.396;2023-04-12T10:17:00;13.70;99.90
16271;DHT22;8243;49.048;8.396;2023-04-12T10:19:28;13.70;99.90
16271;DHT22;8243;49.048;8.396;2023-04-12T10:21:55;13.60;99.90
16271;DHT22;8243;49.048;8.396;2023-04-12T10:24:26;13.40;99.90
16271;DHT22;8243;49.048;8.396;2023-04-12T10:26:53;13.20;99.90
16271;DHT22;8243;49.048;8.396;2023-04-12T10:29:32;13.40;99.90
16271;DHT22;8243;49.048;8.396;2023-04-12T10:34:44;13.50;99.90
16271;DHT22;8243;49.048;8.396;2023-04-12T10:37:14;13.40;99.90
16271;DHT22;8243;49.048;8.396;2023-04-12T10:39:41;13.60;99.90
16271;DHT22;8243;49.048;8.396;2023-04-12T10:42:27;13.60;99.90
16271;DHT22;8243;49.048;8.396;2023-04-12T10:55:43;14.10;99.90
16271;DHT22;8243;49.048;8.396;2023-04-12T10:58:09;14.30;99.90
16271;DHT22;8243;49.048;8.396;2023-04-12T11:03:26;14.80;99.90
16271;DHT22;8243;49.048;8.396;2023-04-12T11:06:00;15.20;99.90
16271;DHT22;8243;49.048;8.396;2023-04-12T11:08:28;15.40;99.90
16271;DHT22;8243;49.048;8.396;2023-04-12T11:11:03;15.20;99.70
16271;DHT22;8243;49.048;8.396;2023-04-12T11:13:37;14.80;99.60
16271;DHT22;8243;49.048;8.396;2023-04-12T11:16:05;14.60;99.90
16271;DHT22;8243;49.048;8.396;2023-04-12T11:18:33;14.40;99.60
16271;DHT22;8243;49.048;8.396;2023-04-12T11:21:01;14.40;99.90
16271;DHT22;8243;49.048;8.396;2023-04-12T11:23:27;14.50;98.30
16271;DHT22;8243;49.048;8.396;2023-04-12T11:25:53;14.80;97.70
16271;DHT22;8243;49.048;8.396;2023-04-12T11:28:19;15.00;95.20
16271;DHT22;8243;49.048;8.396;2023-04-12T11:30:57;14.90;93.70
16271;DHT22;8243;49.048;8.396;2023-04-12T11:33:36;14.90;92.70
16271;DHT22;8243;49.048;8.396;2023-04-12T11:36:06;15.20;92.90
16271;DHT22;8243;49.048;8.396;2023-04-12T11:38:34;15.50;90.00
16271;DHT22;8243;49.048;8.396;2023-04-12T11:41:00;15.40;85.50
16271;DHT22;8243;49.048;8.396;2023-04-12T11:43:26;15.20;85.50
16271;DHT22;8243;49.048;8.396;2023-04-12T11:45:56;15.00;85.00
16271;DHT22;8243;49.048;8.396;2023-04-12T11:48:23;15.10;86.30
16271;DHT22;8243;49.048;8.396;2023-04-12T11:50:48;15.10;83.10
16271;DHT22;8243;49.048;8.396;2023-04-12T11:53:14;15.00;83.40
16271;DHT22;8243;49.048;8.396;2023-04-12T11:55:49;14.90;81.90
16271;DHT22;8243;49.048;8.396;2023-04-12T11:58:16;15.10;79.90
16271;DHT22;8243;49.048;8.396;2023-04-12T12:00:43;15.20;78.00
16271;DHT22;8243;49.048;8.396;2023-04-12T12:03:09;15.30;76.30
16271;DHT22;8243;49.048;8.396;2023-04-12T12:05:40;15.30;76.10
16271;DHT22;8243;49.048;8.396;2023-04-12T12:08:07;15.20;73.20
16271;DHT22;8243;49.048;8.396;2023-04-12T12:10:34;15.40;74.70
16271;DHT22;8243;49.048;8.396;2023-04-12T12:13:00;15.40;70.50
16271;DHT22;8243;49.048;8.396;2023-04-12T12:15:31;15.40;69.00
16271;DHT22;8243;49.048;8.396;2023-04-12T12:17:57;15.40;69.00
16271;DHT22;8243;49.048;8.396;2023-04-12T12:20:23;15.40;69.00
16271;DHT22;8243;49.048;8.396;2023-04-12T12:22:49;15.20;67.90
16271;DHT22;8243;49.048;8.396;2023-04-12T12:25:17;15.10;68.60
16271;DHT22;8243;49.048;8.396;2023-04-12T12:27:43;15.10;67.80
16271;DHT22;8243;49.048;8.396;2023-04-12T12:30:15;15.20;67.00
16271;DHT22;8243;49.048;8.396;2023-04-12T12:32:42;15.10;66.00
16271;DHT22;8243;49.048;8.396;2023-04-12T12:35:10;15.10;65.60
16271;DHT22;8243;49.048;8.396;2023-04-12T12:37:36;15.10;64.80
16271;DHT22;8243;49.048;8.396;2023-04-12T12:40:09;15.30;64.70
16271;DHT22;8243;49.048;8.396;2023-04-12T12:42:47;15.30;62.20
16271;DHT22;8243;49.048;8.396;2023-04-12T12:45:15;15.40;60.80
16271;DHT22;8243;49.048;8.396;2023-04-12T12:50:22;15.60;59.30
16271;DHT22;8243;49.048;8.396;2023-04-12T12:52:49;15.70;58.60
16271;DHT22;8243;49.048;8.396;2023-04-12T12:55:16;15.70;57.30
16271;DHT22;8243;49.048;8.396;2023-04-12T12:57:43;15.70;57.30
16271;DHT22;8243;49.048;8.396;2023-04-12T13:00:10;15.70;56.50
16271;DHT22;8243;49.048;8.396;2023-04-12T13:02:43;15.60;57.20
16271;DHT22;8243;49.048;8.396;2023-04-12T13:05:09;15.70;57.10
16271;DHT22;8243;49.048;8.396;2023-04-12T13:07:35;16.00;57.10
16271;DHT22;8243;49.048;8.396;2023-04-12T13:10:01;16.00;56.10
16271;DHT22;8243;49.048;8.396;2023-04-12T13:12:27;16.00;57.20
16271;DHT22;8243;49.048;8.396;2023-04-12T13:14:53;15.90;57.00
16271;DHT22;8243;49.048;8.396;2023-04-12T13:17:19;15.90;57.00
16271;DHT22;8243;49.048;8.396;2023-04-12T13:19:45;15.90;55.70
16271;DHT22;8243;49.048;8.396;2023-04-12T13:22:12;16.00;56.80
16271;DHT22;8243;49.048;8.396;2023-04-12T13:24:37;16.20;55.80
16271;DHT22;8243;49.048;8.396;2023-04-12T13:27:03;16.20;56.50
16271;DHT22;8243;49.048;8.396;2023-04-12T13:29:29;16.30;61.10
16271;DHT22;8243;49.048;8.396;2023-04-12T13:31:54;16.30;59.80
16271;DHT22;8243;49.048;8.396;2023-04-12T13:34:20;16.40;61.00
16271;DHT22;8243;49.048;8.396;2023-04-12T13:36:46;16.80;58.80
16271;DHT22;8243;49.048;8.396;2023-04-12T13:39:11;17.10;55.90
16271;DHT22;8243;49.048;8.396;2023-04-12T13:41:37;17.00;51.70
16271;DHT22;8243;49.048;8.396;2023-04-12T13:44:03;17.10;51.10
16271;DHT22;8243;49.048;8.396;2023-04-12T13:46:29;16.90;48.80
16271;DHT22;8243;49.048;8.396;2023-04-12T13:48:55;16.80;49.60
16271;DHT22;8243;49.048;8.396;2023-04-12T13:51:21;16.60;49.10
16271;DHT22;8243;49.048;8.396;2023-04-12T13:53:46;16.60;50.60
16271;DHT22;8243;49.048;8.396;2023-04-12T13:56:12;16.40;49.60
16271;DHT22;8243;49.048;8.396;2023-04-12T13:58:37;16.10;52.30
16271;DHT22;8243;49.048;8.396;2023-04-12T14:01:07;16.00;53.60
16271;DHT22;8243;49.048;8.396;2023-04-12T14:03:33;15.80;54.70
16271;DHT22;8243;49.048;8.396;2023-04-12T14:05:58;15.70;57.50
16271;DHT22;8243;49.048;8.396;2023-04-12T14:08:25;15.60;62.70
16271;DHT22;8243;49.048;8.396;2023-04-12T14:10:52;15.20;71.50
16271;DHT22;8243;49.048;8.396;2023-04-12T14:13:20;14.80;82.10
16271;DHT22;8243;49.048;8.396;2023-04-12T14:15:46;14.60;90.70
16271;DHT22;8243;49.048;8.396;2023-04-12T14:18:11;14.40;93.50
16271;DHT22;8243;49.048;8.396;2023-04-12T14:20:37;14.20;98.80
16271;DHT22;8243;49.048;8.396;2023-04-12T14:23:02;14.10;99.90
16271;DHT22;8243;49.048;8.396;2023-04-12T14:25:28;14.00;99.90
16271;DHT22;8243;49.048;8.396;2023-04-12T14:27:54;13.60;99.90
16271;DHT22;8243;49.048;8.396;2023-04-12T14:30:19;13.10;99.90
16271;DHT22;8243;49.048;8.396;2023-04-12T14:32:45;12.30;99.90
16271;DHT22;8243;49.048;8.396;2023-04-12T14:35:11;11.70;99.90
16271;DHT22;8243;49.048;8.396;2023-04-12T14:37:38;11.50;99.90
16271;DHT22;8243;49.048;8.396;2023-04-12T14:40:04;11.40;99.90
16271;DHT22;8243;49.048;8.396;2023-04-12T14:42:32;11.30;99.90
16271;DHT22;8243;49.048;8.396;2023-04-12T14:44:59;11.30;99.90
16271;DHT22;8243;49.048;8.396;2023-04-12T14:47:25;11.30;99.90
16271;DHT22;8243;49.048;8.396;2023-04-12T14:49:50;11.30;99.90
16271;DHT22;8243;49.048;8.396;2023-04-12T14:52:16;11.30;99.90
16271;DHT22;8243;49.048;8.396;2023-04-12T14:54:42;11.50;99.90
16271;DHT22;8243;49.048;8.396;2023-04-12T14:57:08;11.50;99.90
16271;DHT22;8243;49.048;8.396;2023-04-12T14:59:34;11.60;99.90
16271;DHT22;8243;49.048;8.396;2023-04-12T15:01:59;11.70;99.90
16271;DHT22;8243;49.048;8.396;2023-04-12T15:04:25;11.80;99.90
16271;DHT22;8243;49.048;8.396;2023-04-12T15:06:50;12.00;99.90
16271;DHT22;8243;49.048;8.396;2023-04-12T15:09:16;12.20;99.90
16271;DHT22;8243;49.048;8.396;2023-04-12T15:11:42;12.40;99.90
16271;DHT22;8243;49.048;8.396;2023-04-12T15:14:12;12.60;99.90
16271;DHT22;8243;49.048;8.396;2023-04-12T15:16:44;12.70;99.90
16271;DHT22;8243;49.048;8.396;2023-04-12T15:19:11;12.60;99.90
16271;DHT22;8243;49.048;8.396;2023-04-12T15:21:37;12.70;99.90
16271;DHT22;8243;49.048;8.396;2023-04-12T15:24:03;12.70;99.90
16271;DHT22;8243;49.048;8.396;2023-04-12T15:26:28;12.70;99.90
16271;DHT22;8243;49.048;8.396;2023-04-12T15:28:54;12.80;99.90
16271;DHT22;8243;49.048;8.396;2023-04-12T15:31:20;13.00;99.90
16271;DHT22;8243;49.048;8.396;2023-04-12T15:33:46;13.10;99.90
16271;DHT22;8243;49.048;8.396;2023-04-12T15:36:13;13.10;99.90
16271;DHT22;8243;49.048;8.396;2023-04-12T15:38:41;13.10;99.90
16271;DHT22;8243;49.048;8.396;2023-04-12T15:41:07;13.20;99.90
16271;DHT22;8243;49.048;8.396;2023-04-12T15:43:32;13.20;99.90
16271;DHT22;8243;49.048;8.396;2023-04-12T15:45:58;13.10;99.90
16271;DHT22;8243;49.048;8.396;2023-04-12T15:48:24;13.10;99.90
16271;DHT22;8243;49.048;8.396;2023-04-12T15:50:50;13.00;99.90
16271;DHT22;8243;49.048;8.396;2023-04-12T15:53:23;13.00;99.90
16271;DHT22;8243;49.048;8.396;2023-04-12T15:55:50;13.00;99.90
16271;DHT22;8243;49.048;8.396;2023-04-12T15:58:22;12.80;99.90
16271;DHT22;8243;49.048;8.396;2023-04-12T16:00:48;12.70;99.90
16271;DHT22;8243;49.048;8.396;2023-04-12T16:03:15;12.60;99.90
16271;DHT22;8243;49.048;8.396;2023-04-12T16:05:44;12.50;99.90
16271;DHT22;8243;49.048;8.396;2023-04-12T16:08:09;12.60;99.90
16271;DHT22;8243;49.048;8.396;2023-04-12T16:10:35;12.60;99.90
16271;DHT22;8243;49.048;8.396;2023-04-12T16:13:02;12.70;99.90
16271;DHT22;8243;49.048;8.396;2023-04-12T16:15:29;12.70;99.90
16271;DHT22;8243;49.048;8.396;2023-04-12T16:17:55;12.90;99.90
16271;DHT22;8243;49.048;8.396;2023-04-12T16:20:22;12.90;99.90